Weather observations for the past three days for
Spartanburg Memorial
Metric (Imperial)
Date Time (edt) Wind (kph) Vis. (km) Weather Sky Cond. Temperature (ºC) Relative Humidity Wind Chill (°C) Heat Index (°C) Pressure Precipitation (cm)
Air Dwpt 6 hour altimeter (cm) sea level (mb) 1 hr 3 hr 6 hr
Max. Min.
10 09:35 N 6 16.09 Fair CLR 21 11 53% 76.28 0.0
10 09:15 N 6 16.09 Fair CLR 20 12 60% 76.25 0.0
10 08:55 N 9 16.09 Fair CLR 19 12 64% 76.25 0.0
10 08:35 N 7 16.09 Fair CLR 18 12 68% 76.25 0.0
10 08:15 N 6 16.09 Fair CLR 17 12 73% 76.23 0.0
10 07:55 Calm 16.09 Fair CLR 16 13 83% 76.2 0.0
10 07:35 Calm 16.09 Fair CLR 15 13 88% 76.2 0.0
10 07:15 NE 6 11.27 Fair CLR 13 12 94% 76.17 0.0
10 06:55 Calm 1.21 Fog/Mist VV005 13 12 94% 76.12 0.0
10 06:35 Calm 0.40 Fog BKN001 13 12 94% 76.15 0.0
10 06:15 Calm 11.27 Fair CLR 13 12 94% 76.12 0.0
10 05:55 Calm 8.05 Fog/Mist CLR 13 13 100% 76.1 0.0
10 05:35 E 6 11.27 Fair CLR 14 13 94% 76.07 0.0
10 05:15 Calm 16.09 Fair CLR 15 13 88% 76.05 0.0
10 04:55 Calm 16.09 Fair CLR 15 13 88% 76.05 0.0
10 04:35 Calm 16.09 Fair CLR 15 14 94% 76.02 0.0
10 04:15 W 7 16.09 Fair CLR 15 13 88% 76.02 0.0
10 03:35 Calm 11.27 Fair CLR 15 13 88% 75.97 0.0
10 03:15 Calm 11.27 Fair CLR 15 13 88% 75.97 0.0
10 02:55 Calm 16.09 Fair CLR 15 14 94% 76 0.0
10 02:35 Calm 16.09 Fair CLR 15 14 94% 75.97 0.0
10 02:15 Calm 16.09 Fair CLR 16 14 88% 75.97 0.0
10 01:55 Calm 16.09 Fair CLR 16 14 88% 75.97 0.0
10 01:35 W 6 16.09 Fair CLR 16 14 88% 76.02 0.0
10 01:15 SW 6 16.09 Fair CLR 16 15 94% 76 0.0
10 00:55 SW 6 16.09 Fair CLR 16 15 94% 76.02 0.0
10 00:35 Calm 16.09 Fair CLR 16 15 94% 76 0.0
10 00:15 SW 6 16.09 Fair CLR 17 15 88% 76 0.0
09 23:55 W 6 16.09 Fair CLR 17 15 88% 76 0.0
09 23:35 W 7 16.09 Fair CLR 17 15 88% 76 0.0
09 23:15 SW 9 16.09 Fair CLR 17 15 88% 76 0.0
09 22:55 SW 9 16.09 Fair CLR 17 15 88% 76 0.0
09 22:35 SW 9 16.09 Fair CLR 18 14 78% 76 0.0
09 22:15 SW 7 16.09 Fair CLR 18 14 78% 76 0.0
09 21:55 SW 7 16.09 Fair CLR 18 14 78% 75.97 0.0
09 21:35 SW 6 16.09 Fair CLR 18 14 78% 75.95 0.0
09 21:15 SW 7 16.09 Fair CLR 19 14 73% 75.95 0.0
09 20:55 SW 6 16.09 Fair CLR 19 14 73% 75.92 0.0
09 20:35 SW 9 16.09 Fair CLR 20 14 69% 75.9 0.0
09 20:15 SW 9 16.09 Fair CLR 20 14 69% 75.87 0.0
09 19:55 SW 9 16.09 Fair CLR 20 14 69% 75.87 0.0
09 19:35 SW 6 16.09 Fair CLR 21 14 64% 75.84 0.0
09 19:15 SW 7 16.09 Fair CLR 21 13 60% 75.82 0.0
09 18:55 SW 7 16.09 Partly Cloudy SCT040 21 13 60% 75.82 0.0
09 18:35 S 13 16.09 Partly Cloudy SCT037 21 13 60% 75.82 0.0
09 18:15 SW 11 16.09 Mostly Cloudy SCT031 BKN038 21 13 60% 75.82 0.0
09 17:55 SW 13 16.09 Mostly Cloudy SCT033 BKN038 22 13 57% 75.79 0.0
09 17:35 SW 15 16.09 Partly Cloudy SCT036 22 13 57% 75.79 0.0
09 17:15 SW 17 16.09 Partly Cloudy SCT032 22 13 57% 75.79 0.0
09 16:55 SW 11 16.09 Partly Cloudy SCT032 23 14 57% 75.79 0.0
09 16:35 W 19 G 26 16.09 Fair CLR 23 13 53% 75.79 0.0
09 16:15 SW 17 G 26 16.09 Partly Cloudy SCT033 23 13 53% 75.79 0.0
09 15:55 SW 17 16.09 Mostly Cloudy BKN031 BKN037 22 13 57% 75.82 0.0
09 15:35 SW 13 16.09 Overcast BKN029 OVC034 22 13 57% 75.82 0.0
09 15:15 SW 13 16.09 Mostly Cloudy BKN027 22 13 57% 75.82 0.0
09 14:55 SW 13 16.09 Mostly Cloudy BKN029 22 13 57% 75.82 0.0
09 14:15 SW 13 G 26 16.09 Mostly Cloudy BKN025 21 13 60% 75.84 0.0
09 13:55 SW 11 16.09 Mostly Cloudy BKN027 BKN034 21 13 60% 75.87 0.0
09 13:35 SW 11 16.09 Mostly Cloudy BKN027 BKN036 21 13 60% 75.87 0.0
09 13:15 SW 15 16.09 Overcast OVC027 20 13 64% 75.9 0.0
09 12:55 SW 13 16.09 Overcast OVC027 20 13 64% 75.92 0.0
09 12:35 SW 9 16.09 Overcast SCT027 OVC039 20 13 64% 75.92 0.0
09 12:15 SW 11 16.09 Overcast OVC039 20 12 60% 75.92 0.0
09 11:55 SW 11 16.09 Overcast SCT024 OVC043 20 13 64% 75.95 0.0
09 11:35 SW 9 16.09 Overcast OVC043 19 12 64% 75.95 0.0
09 11:15 SW 11 16.09 Overcast SCT032 OVC043 18 12 68% 75.97 0.0
09 10:55 SW 7 16.09 Overcast OVC043 18 12 68% 75.95 0.0
09 10:35 W 9 16.09 Overcast OVC043 18 12 68% 75.95 0.0
09 10:15 Calm 16.09 Mostly Cloudy BKN043 BKN110 18 12 68% 75.92 0.0
09 09:55 Calm 16.09 Partly Cloudy SCT060 SCT080 SCT100 17 12 73% 75.92 0.0
09 09:35 SW 7 16.09 Partly Cloudy SCT110 16 12 77% 75.92 0.0
09 09:15 S 6 16.09 Mostly Cloudy BKN048 16 12 77% 75.95 0.0
09 08:55 Calm 16.09 Overcast OVC048 15 11 77% 75.97 0.0
09 08:35 Calm 16.09 Mostly Cloudy SCT038 BKN050 BKN100 15 12 82% 76 0.0
09 08:15 Calm 16.09 Partly Cloudy SCT037 SCT100 13 11 88% 76 0.0
09 07:55 Calm 16.09 Mostly Cloudy BKN090 13 11 88% 75.97 0.0
09 07:35 Calm 16.09 Overcast OVC100 13 11 88% 75.97 0.0
09 07:15 Calm 16.09 Overcast SCT065 OVC100 12 11 94% 75.95 0.0
09 06:55 Calm 16.09 Overcast OVC065 12 11 94% 75.97 0.0
09 06:35 Calm 16.09 Overcast OVC065 12 11 94% 75.97 0.0
09 06:15 Calm 16.09 Overcast OVC065 12 10 88% 75.97 0.0
09 05:55 Calm 16.09 Overcast OVC065 12 10 88% 75.95 0.0
09 05:35 Calm 16.09 Overcast SCT065 OVC110 11 10 94% 75.92 0.0
09 05:15 Calm 16.09 Mostly Cloudy BKN110 11 10 94% 75.92 0.0
09 04:55 Calm 16.09 Fair CLR 11 10 94% 75.92 0.0
09 04:35 Calm 16.09 Fair CLR 10 9 94% 75.92 0.0
09 04:15 Calm 16.09 Fair CLR 11 9 88% 75.92 0.0
09 03:55 Calm 16.09 Fair CLR 11 10 94% 75.95 0.0
09 03:35 Calm 16.09 Fair CLR 11 9 88% 75.92 0.0
09 03:15 Calm 16.09 Fair CLR 11 10 94% 75.95 0.0
09 02:55 Calm 16.09 Fair CLR 12 10 88% 75.97 0.0
09 02:35 Calm 16.09 Fair CLR 12 10 88% 76.02 0.0
09 02:15 Calm 16.09 Fair CLR 13 10 82% 76.02 0.0
09 01:55 Calm 16.09 Fair CLR 13 10 82% 76.05 0.0
09 01:35 Calm 16.09 Fair CLR 13 10 82% 76.07 0.0
09 01:15 Calm 16.09 Fair CLR 13 10 82% 76.07 0.0
09 00:55 Calm 16.09 Fair CLR 14 10 77% 76.1 0.0
09 00:35 Calm 16.09 Fair CLR 14 10 77% 76.1 0.0
09 00:15 Calm 16.09 Partly Cloudy SCT050 15 10 72% 76.12 0.0
08 23:55 Calm 16.09 Partly Cloudy SCT050 15 10 72% 76.15 0.0
08 23:35 Calm 16.09 Fair CLR 15 10 72% 76.15 0.0
08 23:15 Calm 16.09 Fair CLR 15 10 72% 76.15 0.0
08 22:55 Calm 16.09 Fair CLR 16 10 68% 76.12 0.0
08 22:35 Calm 16.09 Fair CLR 16 10 68% 76.12 0.0
08 22:15 Calm 16.09 Fair CLR 16 10 68% 76.15 0.0
08 21:55 Calm 16.09 Fair CLR 16 10 68% 76.15 0.0
08 21:35 Calm 16.09 Fair CLR 16 10 68% 76.15 0.0
08 21:15 Calm 16.09 Fair CLR 16 10 68% 76.12 0.0
08 20:55 Calm 16.09 Fair CLR 17 9 60% 76.1 0.0
08 20:35 Calm 16.09 Fair CLR 17 9 60% 76.12 0.0
08 20:15 Calm 16.09 Fair CLR 17 10 64% 76.1 0.0
08 19:55 Calm 16.09 Fair CLR 18 9 56% 76.07 0.0
08 19:35 Calm 16.09 Fair CLR 18 8 52% 76.1 0.0
08 18:55 S 6 16.09 Fair CLR 19 8 49% 76.07 0.0
08 18:35 SW 6 16.09 Fair CLR 20 7 43% 76.1 0.0
08 18:15 Calm 16.09 Fair CLR 20 7 43% 76.07 0.0
08 17:55 Calm 16.09 Fair CLR 20 7 43% 76.07 0.0
08 17:35 Calm 16.09 Fair CLR 20 6 40% 76.1 0.0
08 17:15 SW 7 16.09 Partly Cloudy SCT060 20 6 40% 76.1 0.0
08 16:55 S 6 16.09 Partly Cloudy SCT060 20 6 40% 76.1 0.0
08 16:35 S 9 16.09 Partly Cloudy SCT060 21 6 38% 76.1 0.0
08 16:15 S 6 16.09 Mostly Cloudy BKN060 21 6 38% 76.12 0.0
08 15:35 W 9 16.09 Fair CLR 21 6 38% 76.15 0.0
08 15:15 SW 9 16.09 Partly Cloudy SCT050 20 6 40% 76.17 0.0
08 14:55 S 9 16.09 Mostly Cloudy BKN050 21 6 38% 76.2 0.0
08 14:35 Calm 16.09 Partly Cloudy SCT050 20 6 40% 76.23 0.0
08 14:15 S 7 16.09 Mostly Cloudy BKN050 21 7 40% 76.25 0.0
08 13:35 E 7 16.09 Mostly Cloudy BKN048 BKN050 19 6 43% 76.28 0.0
08 13:15 Calm 16.09 Mostly Cloudy SCT050 BKN060 20 7 43% 76.3 0.0
08 12:55 Calm 16.09 Partly Cloudy SCT045 SCT050 18 6 46% 76.33 0.0
08 12:35 E 7 16.09 Mostly Cloudy BKN050 20 7 43% 76.33 0.0
08 12:15 SE 7 16.09 Partly Cloudy SCT048 19 5 40% 76.35 0.0
08 11:55 S 6 16.09 Partly Cloudy SCT044 18 6 46% 76.38 0.0
08 11:35 SE 7 16.09 Partly Cloudy SCT044 18 6 46% 76.38 0.0
08 11:15 SE 11 16.09 Partly Cloudy SCT037 SCT046 18 6 46% 76.38 0.0
08 10:55 SE 7 16.09 Partly Cloudy SCT037 17 7 52% 76.38 0.0
08 10:35 E 6 16.09 Fair CLR 17 6 49% 76.38 0.0
08 10:15 SE 9 16.09 Fair CLR 17 7 52% 76.38 0.0
08 09:35 E 6 11.27 Fair CLR 16 6 52% 76.4 0.0
08 09:15 E 6 16.09 Fair CLR 15 6 55% 76.38 0.0
08 08:55 NE 7 16.09 Fair CLR 15 7 59% 76.38 0.0
08 08:35 N 9 16.09 Fair CLR 13 7 67% 76.38 0.0
08 08:15 N 9 16.09 Fair CLR 13 7 67% 76.35 0.0
08 07:55 N 6 16.09 Fair CLR 12 8 77% 76.35 0.0
08 07:35 N 7 16.09 Fair CLR 11 8 82% 76.33 0.0
08 07:15 N 6 16.09 Fair CLR 10 7 82% 76.28 0.0
08 06:55 NE 6 16.09 Fair CLR 10 7 82% 76.25 0.0
08 06:35 N 7 16.09 Fair CLR 9 7 87% 8 76.23 0.0
08 06:15 Calm 16.09 Fair CLR 9 8 94% 76.2 0.0
08 05:55 Calm 16.09 Fair CLR 9 7 87% 76.17 0.0
08 05:35 Calm 16.09 Fair CLR 10 8 88% 76.17 0.0
08 05:15 Calm 16.09 Fair CLR 9 7 87% 76.17 0.0
08 04:55 N 6 16.09 Fair CLR 9 7 87% 76.17 0.0
08 04:35 Calm 16.09 Fair CLR 10 8 88% 76.15 0.0
08 04:15 Calm 16.09 Fair CLR 10 8 88% 76.15 0.0
08 03:55 Calm 16.09 Fair CLR 10 8 88% 76.15 0.0
08 03:35 Calm 16.09 Fair CLR 10 8 88% 76.12 0.0
08 03:15 Calm 16.09 Fair CLR 10 8 88% 76.15 0.0
08 02:55 Calm 16.09 Fair CLR 10 8 88% 76.12 0.0
08 02:35 Calm 16.09 Fair CLR 10 8 88% 76.12 0.0
08 02:15 Calm 16.09 Fair CLR 11 8 82% 76.1 0.0
08 01:55 Calm 16.09 Fair CLR 11 8 82% 76.12 0.0
08 01:35 Calm 16.09 Fair CLR 11 8 82% 76.12 0.0
08 01:15 Calm 16.09 Fair CLR 12 7 72% 76.12 0.0
08 00:55 Calm 16.09 Fair CLR 13 7 67% 76.1 0.0
08 00:35 Calm 16.09 Fair CLR 14 7 63% 76.1 0.0
08 00:15 Calm 16.09 Partly Cloudy SCT050 15 6 55% 76.07 0.0
07 23:55 Calm 16.09 Mostly Cloudy BKN050 15 6 55% 76.1 0.0
07 23:35 N 9 16.09 Overcast OVC048 16 6 52% 76.07 0.0
07 23:15 N 9 16.09 Overcast OVC046 17 6 49% 76.07 0.0
07 22:55 N 7 16.09 Overcast OVC046 17 7 52% 76.07 0.0
07 22:35 N 9 16.09 Overcast OVC046 17 6 49% 76.05 0.0
07 22:15 N 15 16.09 Overcast OVC048 17 7 52% 76.02 0.0
07 21:55 N 6 16.09 Overcast OVC050 17 8 56% 76 0.0
07 21:35 N 9 16.09 Overcast OVC050 17 8 56% 75.95 0.0
07 21:15 NW 7 16.09 Mostly Cloudy BKN050 17 8 56% 75.92 0.0
07 20:55 N 15 16.09 Partly Cloudy SCT055 17 8 56% 75.9 0.0
07 20:35 N 17 16.09 Fair CLR 18 9 56% 75.84 0.0
07 20:15 NW 20 G 35 16.09 Partly Cloudy SCT050 19 9 52% 75.82 0.0
07 19:55 NW 20 G 28 16.09 Mostly Cloudy BKN050 20 10 53% 75.77 0.0
07 19:35 NW 19 G 26 16.09 Partly Cloudy SCT050 SCT055 SCT070 21 11 53% 75.74 0.0
07 19:15 N 20 G 28 16.09 Mostly Cloudy BKN055 BKN070 BKN085 22 12 53% 75.72 0.0
07 18:55 N 11 16.09 Mostly Cloudy SCT055 SCT070 BKN085 23 13 53% 75.69 0.0
07 18:35 NW 13 16.09 Mostly Cloudy BKN055 24 12 47% 25 75.64 0.0
07 18:15 W 17 G 26 16.09 Partly Cloudy SCT055 SCT065 25 12 44% 26 75.62 0.0
07 17:55 W 24 G 33 16.09 Partly Cloudy SCT050 SCT065 SCT075 26 12 42% 26 75.62 0.0
07 17:35 SW 22 G 30 16.09 Partly Cloudy SCT050 SCT065 25 12 44% 26 75.59 0.0
07 17:15 W 22 G 35 16.09 Partly Cloudy SCT050 26 12 42% 26 75.59 0.0
07 16:55 W 20 G 30 16.09 Mostly Cloudy BKN050 BKN055 BKN070 26 13 45% 26 75.57 0.0
07 16:35 SW 13 G 28 11.27 Mostly Cloudy SCT049 BKN055 BKN065 25 14 51% 26 75.57 0.0
07 16:15 W 22 G 31 16.09 Mostly Cloudy SCT041 SCT048 BKN060 25 13 47% 26 75.59 0.0
07 15:55 SW 13 16.09 Mostly Cloudy BKN041 BKN050 25 15 54% 26 75.59 0.0
07 15:35 SW 19 G 28 16.09 Mostly Cloudy SCT039 BKN047 BKN050 25 15 54% 26 75.62 0.0
07 15:15 SW 7 16.09 Mostly Cloudy SCT039 BKN044 BKN050 24 15 57% 25 75.62 0.0
07 14:55 SW 11 16.09 Mostly Cloudy SCT039 BKN046 BKN060 24 15 57% 25 75.67 0.0
07 14:35 SW 9 16.09 Partly Cloudy SCT036 SCT047 24 16 61% 25 75.69 0.0
07 14:15 W 13 11.27 Partly Cloudy SCT030 SCT036 SCT043 23 15 61% 75.67 0.0
07 13:50 SW 15 16.09 Mostly Cloudy BKN028 BKN035 BKN040 23 15 61% 75.67 0.0
07 13:35 SW 15 G 28 16.09 Mostly Cloudy SCT025 BKN032 23 16 65% 75.67 0.0
07 13:15 W 13 16.09 Mostly Cloudy SCT021 BKN028 22 16 69% 75.69 0.0
07 12:55 SW 9 16.09 Partly Cloudy SCT019 SCT027 SCT110 22 16 69% 75.72 0.0
07 12:35 SW 9 16.09 Partly Cloudy SCT019 SCT026 SCT110 21 16 73% 75.74 0.0
07 12:15 SW 9 16.09 Partly Cloudy SCT014 SCT110 20 16 78% 75.74 0.0
07 11:55 W 15 16.09 Mostly Cloudy BKN012 BKN017 BKN110 19 17 88% 75.74 0.0
07 11:35 W 13 16.09 Mostly Cloudy BKN012 BKN018 18 17 94% 75.82 0.0
07 11:15 W 13 16.09 Mostly Cloudy SCT009 SCT013 BKN120 18 17 94% 75.77 0.0
07 10:55 W 7 16.09 Partly Cloudy SCT007 SCT120 18 17 94% 75.72 0.0
07 10:35 Calm 16.09 Mostly Cloudy SCT007 SCT070 BKN110 17 17 100% 75.69 0.0
07 10:15 Calm 16.09 Light Rain SCT009 BKN090 OVC110 17 16 94% 75.74 0.0
07 09:55 Calm 16.09 Light Rain SCT005 SCT050 OVC065 17 16 94% 75.79 0.0 0.15
Date Time (edt) Wind (kph) Vis. (km) Weather Sky Cond. Air Dwpt Max. Min. Relative Humidity Wind Chill (°C) Heat Index (°C) altimeter (cm) sea level (mb) 1 hr 3 hr 6 hr
6 hour
Temperature (ºC) Pressure Precipitation (cm)